createdAt,value
2022-08-14T00:00:13.500Z,60.56
2022-08-14T00:04:36.003Z,60.93
2022-08-14T00:08:45.207Z,61.15
2022-08-14T00:12:56.893Z,61.54
2022-08-14T00:16:58.657Z,61.62
2022-08-14T00:21:03.227Z,61.49
2022-08-14T00:25:09.141Z,61.35
2022-08-14T00:29:11.022Z,61.35
2022-08-14T00:33:15.942Z,62.03
2022-08-14T00:37:17.997Z,62.16
2022-08-14T00:41:19.909Z,61.99
2022-08-14T00:45:22.094Z,62.41
2022-08-14T00:49:24.102Z,63.13
2022-08-14T00:53:26.034Z,63.22
2022-08-14T00:57:31.988Z,62.77
2022-08-14T01:01:36.950Z,62.94
2022-08-14T01:05:50.689Z,63.30
2022-08-14T01:09:57.279Z,63.74
2022-08-14T01:14:04.741Z,64.48
2022-08-14T01:18:39.477Z,64.59
2022-08-14T01:22:42.987Z,63.75
2022-08-14T01:26:50.586Z,64.60
2022-08-14T01:30:57.602Z,65.15
2022-08-14T01:35:19.977Z,64.75
2022-08-14T01:39:20.872Z,65.73
2022-08-14T01:43:26.588Z,65.20
2022-08-14T01:47:33.462Z,65.50
2022-08-14T01:51:36.442Z,65.66
2022-08-14T01:55:40.390Z,65.66
2022-08-14T01:59:44.574Z,66.10
2022-08-14T02:03:49.871Z,66.14
2022-08-14T02:08:08.576Z,66.78
2022-08-14T02:12:10.888Z,67.15
2022-08-14T02:16:27.378Z,67.07
2022-08-14T02:20:33.690Z,67.48
2022-08-14T02:24:38.977Z,67.26
2022-08-14T02:28:58.110Z,67.94
2022-08-14T02:33:01.183Z,67.84
2022-08-14T02:37:10.029Z,67.83
2022-08-14T02:41:13.296Z,67.95
2022-08-14T02:45:15.415Z,67.36
2022-08-14T02:49:27.560Z,67.77
2022-08-14T02:53:39.698Z,68.07
2022-08-14T02:57:43.812Z,67.82
2022-08-14T03:01:51.131Z,67.83
2022-08-14T03:05:56.406Z,68.03
2022-08-14T03:10:26.968Z,68.52
2022-08-14T03:14:21.189Z,68.95
2022-08-14T03:18:31.979Z,68.92
2022-08-14T03:22:34.695Z,69.28
2022-08-14T03:26:36.836Z,69.09
2022-08-14T03:30:41.649Z,69.86
2022-08-14T03:34:47.918Z,69.43
2022-08-14T03:39:13.062Z,69.22
2022-08-14T03:43:17.664Z,69.32
2022-08-14T03:47:19.705Z,69.16
2022-08-14T03:51:23.941Z,69.49
2022-08-14T03:55:25.469Z,69.91
2022-08-14T03:59:28.526Z,70.02
2022-08-14T04:03:30.162Z,70.42
2022-08-14T04:07:32.775Z,70.77
2022-08-14T04:11:38.446Z,70.79
2022-08-14T04:15:56.353Z,70.72
2022-08-14T04:20:06.241Z,71.22
2022-08-14T04:24:07.774Z,71.28
2022-08-14T04:29:02.198Z,71.47
2022-08-14T04:32:58.456Z,71.48
2022-08-14T04:37:21.904Z,71.74
2022-08-14T04:41:44.840Z,71.20
2022-08-14T04:45:50.982Z,71.82
2022-08-14T04:49:57.007Z,71.50
2022-08-14T04:54:00.826Z,71.33
2022-08-14T04:58:05.119Z,71.13
2022-08-14T05:02:08.207Z,71.04
2022-08-14T05:06:37.490Z,70.70
2022-08-14T05:10:33.297Z,70.18
2022-08-14T05:14:53.009Z,69.95
2022-08-14T05:19:26.646Z,69.08
2022-08-14T05:23:19.636Z,68.96
2022-08-14T05:27:25.053Z,68.87
2022-08-14T05:31:30.204Z,68.17
2022-08-14T05:35:44.181Z,67.11
2022-08-14T05:39:48.432Z,67.09
2022-08-14T05:43:51.007Z,65.69
2022-08-14T05:47:52.713Z,62.47
2022-08-14T05:51:54.113Z,59.40
2022-08-14T05:55:56.328Z,57.97
2022-08-14T05:59:58.020Z,57.31
2022-08-14T06:04:01.672Z,56.22
2022-08-14T06:08:31.504Z,54.88
2022-08-14T06:12:56.532Z,53.97
2022-08-14T06:16:58.650Z,52.56
2022-08-14T06:21:02.151Z,51.41
2022-08-14T06:25:04.027Z,48.74
2022-08-14T06:29:07.207Z,47.27
2022-08-14T06:33:08.741Z,44.93
2022-08-14T06:37:11.017Z,44.26
2022-08-14T06:41:13.150Z,44.27
2022-08-14T06:45:26.074Z,44.54
2022-08-14T06:49:30.235Z,45.18
2022-08-14T06:53:32.075Z,44.95
2022-08-14T06:57:41.977Z,44.36
2022-08-14T07:02:01.865Z,44.79
2022-08-14T07:06:03.712Z,44.36
2022-08-14T07:10:16.820Z,43.69
2022-08-14T07:14:18.833Z,42.53
2022-08-14T07:18:26.069Z,41.65
2022-08-14T07:22:32.638Z,40.64
2022-08-14T07:26:34.648Z,40.10
2022-08-14T07:30:41.912Z,38.87
2022-08-14T07:34:52.461Z,38.45
2022-08-14T07:38:53.898Z,37.94
2022-08-14T07:42:55.947Z,38.06
2022-08-14T07:46:57.368Z,36.95
2022-08-14T07:51:03.246Z,36.85
2022-08-14T07:55:14.734Z,35.92
2022-08-14T07:59:41.164Z,35.62
2022-08-14T08:03:49.547Z,34.37
2022-08-14T08:07:54.017Z,34.07
2022-08-14T08:11:57.430Z,33.04
2022-08-14T08:15:59.153Z,32.54
2022-08-14T08:20:00.910Z,31.93
2022-08-14T08:24:03.628Z,31.80
2022-08-14T08:28:08.902Z,31.21
2022-08-14T08:32:21.197Z,30.97
2022-08-14T08:36:41.489Z,30.35
2022-08-14T08:40:47.047Z,29.64
2022-08-14T08:44:56.636Z,29.50
2022-08-14T08:53:03.095Z,28.55
2022-08-14T08:57:12.468Z,28.31
2022-08-14T09:01:28.372Z,28.35
2022-08-14T09:05:31.475Z,28.18
2022-08-14T09:09:34.422Z,27.55
2022-08-14T09:13:56.500Z,26.83
2022-08-14T09:17:59.700Z,26.10
2022-08-14T09:22:01.363Z,26.63
2022-08-14T09:26:22.714Z,26.34
2022-08-14T09:30:33.701Z,26.37
2022-08-14T09:34:57.985Z,26.59
2022-08-14T09:39:22.782Z,25.96
2022-08-14T09:43:51.996Z,25.63
2022-08-14T09:47:56.140Z,24.40
2022-08-14T09:52:06.333Z,24.82
2022-08-14T09:56:30.369Z,24.11
2022-08-14T10:00:48.529Z,24.12
2022-08-14T10:05:33.623Z,24.23
2022-08-14T10:09:57.532Z,22.80
2022-08-14T10:14:12.434Z,22.72
2022-08-14T10:18:18.570Z,22.83
2022-08-14T10:23:15.125Z,23.11
2022-08-14T10:27:01.104Z,22.07
2022-08-14T10:31:02.779Z,22.19
2022-08-14T10:35:09.344Z,21.72
2022-08-14T10:39:22.560Z,22.02
2022-08-14T10:43:26.124Z,22.79
2022-08-14T10:48:07.136Z,22.04
2022-08-14T10:52:23.582Z,21.89
2022-08-14T10:56:35.722Z,21.94
2022-08-14T11:00:39.208Z,21.43
2022-08-14T11:05:04.806Z,22.03
2022-08-14T11:09:16.987Z,21.21
2022-08-14T11:13:27.504Z,20.20
2022-08-14T11:17:32.806Z,21.30
2022-08-14T11:21:40.334Z,20.99
2022-08-14T11:25:53.375Z,21.03
2022-08-14T11:30:48.757Z,21.11
2022-08-14T11:34:32.157Z,19.46
2022-08-14T11:38:47.293Z,19.30
2022-08-14T11:42:58.114Z,17.55
2022-08-14T11:47:05.905Z,18.64
2022-08-14T11:51:25.056Z,19.53
2022-08-14T11:55:38.181Z,18.35
2022-08-14T11:59:44.125Z,16.71
2022-08-14T12:03:52.312Z,18.02
2022-08-14T12:08:04.153Z,17.49
2022-08-14T12:12:35.245Z,18.48
2022-08-14T12:16:37.776Z,17.16
2022-08-14T12:20:45.892Z,18.02
2022-08-14T12:24:53.641Z,18.40
2022-08-14T12:29:14.398Z,17.77
2022-08-14T12:33:31.200Z,18.25
2022-08-14T12:37:36.897Z,18.57
2022-08-14T12:41:53.693Z,18.21
2022-08-14T12:45:58.622Z,17.72
2022-08-14T12:50:00.723Z,18.45
2022-08-14T12:54:27.391Z,18.74
2022-08-14T12:58:52.071Z,19.52
2022-08-14T13:02:56.462Z,19.19
2022-08-14T13:07:08.356Z,19.13
2022-08-14T13:11:14.684Z,19.29
2022-08-14T13:15:18.325Z,19.08
2022-08-14T13:19:24.256Z,18.95
2022-08-14T13:23:33.653Z,18.73
2022-08-14T13:27:39.371Z,19.57
2022-08-14T13:31:45.812Z,17.55
2022-08-14T13:35:50.171Z,18.32
2022-08-14T13:39:57.321Z,17.18
2022-08-14T13:44:00.579Z,17.27
2022-08-14T13:48:02.397Z,17.04
2022-08-14T13:52:48.141Z,17.69
2022-08-14T13:56:36.824Z,18.68
2022-08-14T14:00:53.029Z,19.10
2022-08-14T14:05:00.714Z,18.14
2022-08-14T14:09:03.722Z,19.19
2022-08-14T14:13:05.869Z,19.11
2022-08-14T14:17:09.172Z,19.56
2022-08-14T14:21:13.732Z,19.54
2022-08-14T14:25:19.466Z,20.03
2022-08-14T14:29:26.336Z,20.64
2022-08-14T14:33:46.491Z,19.60
2022-08-14T14:37:49.444Z,20.71
2022-08-14T14:41:56.306Z,20.31
2022-08-14T14:45:58.150Z,19.99
2022-08-14T14:50:00.781Z,19.61
2022-08-14T14:54:04.125Z,19.28
2022-08-14T14:58:07.274Z,18.92
2022-08-14T15:02:09.373Z,19.38
2022-08-14T15:06:12.802Z,19.80
2022-08-14T15:10:26.866Z,20.94
2022-08-14T15:14:55.357Z,20.11
2022-08-14T15:18:53.527Z,20.47
2022-08-14T15:22:54.965Z,21.14
2022-08-14T15:27:00.257Z,20.49
2022-08-14T15:31:03.278Z,20.67
2022-08-14T15:35:07.692Z,21.38
2022-08-14T15:39:09.681Z,21.29
2022-08-14T15:43:12.919Z,21.92
2022-08-14T15:47:15.077Z,21.94
2022-08-14T15:51:27.871Z,22.36
2022-08-14T15:55:35.540Z,22.53
2022-08-14T15:59:57.046Z,23.75
2022-08-14T16:04:00.069Z,23.08
2022-08-14T16:08:06.914Z,23.74
2022-08-14T16:12:41.088Z,24.49
2022-08-14T16:16:51.343Z,24.41
2022-08-14T16:20:59.825Z,24.74
2022-08-14T16:25:03.772Z,24.84
2022-08-14T16:29:07.650Z,24.81
2022-08-14T16:33:11.423Z,25.68
2022-08-14T16:37:35.322Z,25.62
2022-08-14T16:41:37.033Z,25.79
2022-08-14T16:45:43.914Z,26.28
2022-08-14T16:50:04.324Z,26.31
2022-08-14T16:54:34.223Z,26.68
2022-08-14T16:58:32.225Z,26.60
2022-08-14T17:02:35.256Z,26.96
2022-08-14T17:06:54.770Z,27.11
2022-08-14T17:10:56.144Z,27.17
2022-08-14T17:15:10.472Z,27.73
2022-08-14T17:19:17.674Z,27.59
2022-08-14T17:23:21.090Z,27.55
2022-08-14T17:27:31.687Z,27.98
2022-08-14T17:31:58.344Z,27.93
2022-08-14T17:36:10.409Z,28.13
2022-08-14T17:40:26.584Z,28.51
2022-08-14T17:44:42.406Z,28.99
2022-08-14T17:49:15.596Z,30.60
2022-08-14T17:53:10.069Z,30.77
2022-08-14T17:57:16.320Z,29.99
2022-08-14T18:01:23.651Z,30.70
2022-08-14T18:06:06.973Z,30.62
2022-08-14T18:09:57.114Z,30.22
2022-08-14T18:14:00.722Z,30.20
2022-08-14T18:18:06.596Z,31.00
2022-08-14T18:22:30.893Z,32.10
2022-08-14T18:26:37.667Z,33.17
2022-08-14T18:30:58.015Z,33.18
2022-08-14T18:35:11.207Z,33.47
2022-08-14T18:39:22.801Z,34.19
2022-08-14T18:43:41.912Z,34.49
2022-08-14T18:48:06.500Z,35.13
2022-08-14T18:52:13.617Z,35.46
2022-08-14T18:57:00.186Z,37.62
2022-08-14T19:01:04.491Z,37.79
2022-08-14T19:05:06.381Z,39.13
2022-08-14T19:09:50.946Z,39.33
2022-08-14T19:13:52.578Z,37.16
2022-08-14T19:18:14.737Z,37.00
2022-08-14T19:22:29.847Z,37.57
2022-08-14T19:26:36.310Z,39.31
2022-08-14T19:31:42.251Z,39.15
2022-08-14T19:35:55.279Z,38.26
2022-08-14T19:40:19.680Z,38.47
2022-08-14T19:44:32.016Z,37.57
2022-08-14T19:48:34.128Z,37.63
2022-08-14T19:52:40.011Z,39.68
2022-08-14T19:56:46.009Z,39.66
2022-08-14T20:00:57.121Z,39.13
2022-08-14T20:04:59.648Z,39.13
2022-08-14T20:11:05.558Z,41.21
2022-08-14T20:13:32.763Z,42.00
2022-08-14T20:17:40.660Z,42.29
2022-08-14T20:22:37.556Z,43.68
2022-08-14T20:26:39.302Z,43.73
2022-08-14T20:30:49.893Z,43.21
2022-08-14T20:34:54.477Z,43.93
2022-08-14T20:38:59.725Z,43.85
2022-08-14T20:43:19.754Z,44.37
2022-08-14T20:47:26.812Z,44.74
2022-08-14T20:51:58.568Z,44.60
2022-08-14T20:56:28.430Z,44.91
2022-08-14T21:00:52.134Z,45.40
2022-08-14T21:05:00.579Z,45.75
2022-08-14T21:09:06.548Z,46.44
2022-08-14T21:13:27.452Z,47.86
2022-08-14T21:17:37.509Z,48.25
2022-08-14T21:21:42.405Z,48.78
2022-08-14T21:25:44.766Z,48.99
2022-08-14T21:29:53.815Z,48.91
2022-08-14T21:33:57.957Z,49.10
2022-08-14T21:37:59.449Z,49.54
2022-08-14T21:42:04.639Z,49.62
2022-08-14T21:46:06.252Z,49.57
2022-08-14T21:50:39.514Z,49.82
2022-08-14T21:54:50.049Z,49.88
2022-08-14T21:58:56.253Z,50.07
2022-08-14T22:02:58.049Z,49.96
2022-08-14T22:07:02.483Z,50.43
2022-08-14T22:11:05.235Z,50.18
2022-08-14T22:15:13.455Z,50.77
2022-08-14T22:19:20.113Z,50.66
2022-08-14T22:23:23.765Z,51.01
2022-08-14T22:27:25.278Z,51.99
2022-08-14T22:31:33.947Z,52.74
2022-08-14T22:35:36.729Z,51.85
2022-08-14T22:40:48.377Z,52.22
2022-08-14T22:44:08.684Z,52.27
2022-08-14T22:48:12.435Z,52.60
2022-08-14T22:52:32.388Z,52.98
2022-08-14T22:56:34.907Z,52.80
2022-08-14T23:00:36.558Z,53.00
2022-08-14T23:04:42.672Z,53.57
2022-08-14T23:08:59.357Z,53.76
2022-08-14T23:13:06.721Z,53.63
2022-08-14T23:17:08.301Z,53.90
2022-08-14T23:21:14.769Z,54.03
2022-08-14T23:25:19.909Z,54.07
2022-08-14T23:29:41.674Z,54.44
2022-08-14T23:33:51.882Z,54.67
2022-08-14T23:37:59.114Z,55.14
2022-08-14T23:42:08.545Z,55.03
2022-08-14T23:46:15.005Z,55.82
2022-08-14T23:50:34.017Z,55.11
2022-08-14T23:54:47.908Z,55.58
2022-08-14T23:58:52.333Z,56.14
